Time,TemperatureF,DewpointF,PressureIn,WindDirection,WindDirectionDegrees,WindSpeedMPH,WindSpeedGustMPH,Humidity,HourlyPrecipIn,Conditions,Clouds,dailyrainin,SoftwareType,DateUTC
2013-05-28 00:00:00,59.0,-99.9,-100.00,NE,43,2.0,3.0,-999,-99.99,,,-99.99,,2013-05-28 06:00:00,
2013-05-28 00:52:00,59.0,-99.9,-100.00,NE,43,2.0,3.0,-999,-99.99,,,-99.99,,2013-05-28 06:52:00,
2013-05-28 01:00:00,57.0,-99.9,-100.00,ESE,109,5.0,5.0,-999,-99.99,,,-99.99,,2013-05-28 07:00:00,
2013-05-28 01:52:00,57.0,-99.9,-100.00,ESE,109,5.0,5.0,-999,-99.99,,,-99.99,,2013-05-28 07:52:00,
2013-05-28 02:00:00,55.0,-99.9,-100.00,SE,136,1.0,5.0,-999,-99.99,,,-99.99,,2013-05-28 08:00:00,
2013-05-28 02:52:00,55.0,-99.9,-100.00,SE,136,1.0,5.0,-999,-99.99,,,-99.99,,2013-05-28 08:52:00,
2013-05-28 03:00:00,53.0,-99.9,-100.00,North,0,6.0,7.0,-999,-99.99,,,-99.99,,2013-05-28 09:00:00,
2013-05-28 03:54:00,53.0,-99.9,-100.00,North,0,6.0,7.0,-999,-99.99,,,-99.99,,2013-05-28 09:54:00,
2013-05-28 04:00:00,53.0,-99.9,-100.00,North,0,8.0,8.0,-999,-99.99,,,-99.99,,2013-05-28 10:00:00,
2013-05-28 04:53:00,53.0,-99.9,-100.00,North,0,8.0,8.0,-999,-99.99,,,-99.99,,2013-05-28 10:53:00,
2013-05-28 05:00:00,53.0,-99.9,-100.00,ESE,111,1.0,5.0,-999,-99.99,,,-99.99,,2013-05-28 11:00:00,
2013-05-28 05:52:00,53.0,-99.9,-100.00,ESE,111,1.0,5.0,-999,-99.99,,,-99.99,,2013-05-28 11:52:00,
2013-05-28 06:00:00,53.0,-99.9,-100.00,SW,225,3.0,4.0,-999,-99.99,,,-99.99,,2013-05-28 12:00:00,
2013-05-28 06:52:00,53.0,-99.9,-100.00,SW,225,3.0,4.0,-999,-99.99,,,-99.99,,2013-05-28 12:52:00,
2013-05-28 07:00:00,55.0,-99.9,-100.00,WNW,284,2.0,3.0,-999,-99.99,,,-99.99,,2013-05-28 13:00:00,
2013-05-28 07:52:00,55.0,-99.9,-100.00,WNW,284,2.0,3.0,-999,-99.99,,,-99.99,,2013-05-28 13:52:00,
2013-05-28 08:00:00,57.0,-99.9,-100.00,SSE,163,0.0,2.0,-999,-99.99,,,-99.99,,2013-05-28 14:00:00,
2013-05-28 08:52:00,57.0,-99.9,-100.00,SSE,163,0.0,2.0,-999,-99.99,,,-99.99,,2013-05-28 14:52:00,
2013-05-28 09:00:00,59.0,-99.9,-100.00,SSE,149,0.0,4.0,-999,-99.99,,,-99.99,,2013-05-28 15:00:00,
2013-05-28 09:53:00,59.0,-99.9,-100.00,SSE,149,0.0,4.0,-999,-99.99,,,-99.99,,2013-05-28 15:53:00,
2013-05-28 10:00:00,62.0,-99.9,-100.00,East,79,2.0,2.0,-999,-99.99,,,-99.99,,2013-05-28 16:00:00,
2013-05-28 10:53:00,62.0,-99.9,-100.00,East,79,2.0,2.0,-999,-99.99,,,-99.99,,2013-05-28 16:53:00,
2013-05-28 11:00:00,68.0,-99.9,-100.00,SSE,161,3.0,9.0,-999,-99.99,,,-99.99,,2013-05-28 17:00:00,
2013-05-28 11:52:00,68.0,-99.9,-100.00,SSE,161,3.0,9.0,-999,-99.99,,,-99.99,,2013-05-28 17:52:00,
2013-05-28 12:00:00,73.0,-99.9,-100.00,South,182,9.0,12.0,-999,-99.99,,,-99.99,,2013-05-28 18:00:00,
2013-05-28 12:52:00,73.0,-99.9,-100.00,South,182,9.0,12.0,-999,-99.99,,,-99.99,,2013-05-28 18:52:00,
2013-05-28 13:00:00,77.0,-99.9,-100.00,SW,216,8.0,21.0,-999,-99.99,,,-99.99,,2013-05-28 19:00:00,
2013-05-28 13:52:00,77.0,-99.9,-100.00,SW,216,8.0,21.0,-999,-99.99,,,-99.99,,2013-05-28 19:52:00,
2013-05-28 14:00:00,78.0,-99.9,-100.00,SE,138,13.0,16.0,-999,-99.99,,,-99.99,,2013-05-28 20:00:00,
2013-05-28 14:52:00,78.0,-99.9,-100.00,SE,138,13.0,16.0,-999,-99.99,,,-99.99,,2013-05-28 20:52:00,
2013-05-28 15:00:00,80.0,-99.9,-100.00,South,178,9.0,18.0,-999,-99.99,,,-99.99,,2013-05-28 21:00:00,
2013-05-28 15:53:00,80.0,-99.9,-100.00,South,178,9.0,18.0,-999,-99.99,,,-99.99,,2013-05-28 21:53:00,
2013-05-28 16:00:00,78.0,-99.9,-100.00,SSE,156,14.0,22.0,-999,-99.99,,,-99.99,,2013-05-28 22:00:00,
2013-05-28 16:52:00,78.0,-99.9,-100.00,SSE,156,14.0,22.0,-999,-99.99,,,-99.99,,2013-05-28 22:52:00,
2013-05-28 17:00:00,77.0,-99.9,-100.00,SSE,156,23.0,28.0,-999,-99.99,,,-99.99,,2013-05-28 23:00:00,
2013-05-28 17:53:00,77.0,-99.9,-100.00,SSE,156,23.0,28.0,-999,-99.99,,,-99.99,,2013-05-28 23:53:00,
2013-05-28 18:00:00,75.0,-99.9,-100.00,SSE,147,19.0,23.0,-999,-99.99,,,-99.99,,2013-05-29 00:00:00,
2013-05-28 18:52:00,75.0,-99.9,-100.00,SSE,147,19.0,23.0,-999,-99.99,,,-99.99,,2013-05-29 00:52:00,
2013-05-28 19:00:00,71.0,-99.9,-100.00,ENE,71,11.0,11.0,-999,-99.99,,,-99.99,,2013-05-29 01:00:00,
2013-05-28 19:52:00,71.0,-99.9,-100.00,ENE,71,11.0,11.0,-999,-99.99,,,-99.99,,2013-05-29 01:52:00,
2013-05-28 20:00:00,69.0,-99.9,-100.00,East,85,17.0,26.0,-999,-99.99,,,-99.99,,2013-05-29 02:00:00,
2013-05-28 20:52:00,69.0,-99.9,-100.00,East,85,17.0,26.0,-999,-99.99,,,-99.99,,2013-05-29 02:52:00,
2013-05-28 21:00:00,68.0,-99.9,-100.00,ENE,70,6.0,14.0,-999,-99.99,,,-99.99,,2013-05-29 03:00:00,
2013-05-28 21:53:00,68.0,-99.9,-100.00,ENE,70,6.0,14.0,-999,-99.99,,,-99.99,,2013-05-29 03:53:00,
2013-05-28 22:00:00,57.0,-99.9,-100.00,NE,34,23.0,38.0,-999,-99.99,,,-99.99,,2013-05-29 04:00:00,
2013-05-28 22:53:00,57.0,-99.9,-100.00,NE,34,23.0,38.0,-999,-99.99,,,-99.99,,2013-05-29 04:53:00,
2013-05-28 23:00:00,57.0,-99.9,-100.00,ENE,76,23.0,29.0,-999,-99.99,,,-99.99,,2013-05-29 05:00:00,
2013-05-28 23:52:00,57.0,-99.9,-100.00,ENE,76,23.0,29.0,-999,-99.99,,,-99.99,,2013-05-29 05:52:00,